createdAt,value
2023-04-15T00:02:19.287Z,7.90
2023-04-15T00:04:54.051Z,7.86
2023-04-15T00:07:29.801Z,7.84
2023-04-15T00:10:04.566Z,7.92
2023-04-15T00:12:39.362Z,7.93
2023-04-15T00:15:13.904Z,7.91
2023-04-15T00:17:48.621Z,7.95
2023-04-15T00:20:23.701Z,7.84
2023-04-15T00:23:00.656Z,7.80
2023-04-15T00:25:35.262Z,7.93
2023-04-15T00:28:10.088Z,7.78
2023-04-15T00:30:44.875Z,7.87
2023-04-15T00:33:19.198Z,7.87
2023-04-15T00:35:55.104Z,7.83
2023-04-15T00:38:31.297Z,7.72
2023-04-15T00:41:06.712Z,7.83
2023-04-15T00:43:41.204Z,7.78
2023-04-15T00:46:17.801Z,7.85
2023-04-15T00:48:53.057Z,7.82
2023-04-15T00:51:27.838Z,7.71
2023-04-15T00:54:04.265Z,7.82
2023-04-15T00:56:40.206Z,7.78
2023-04-15T00:59:15.391Z,7.73
2023-04-15T01:01:50.608Z,7.72
2023-04-15T01:04:25.181Z,7.83
2023-04-15T01:07:00.068Z,7.92
2023-04-15T01:09:35.896Z,7.80
2023-04-15T01:12:15.574Z,7.78
2023-04-15T01:14:49.970Z,7.82
2023-04-15T01:17:26.125Z,7.84
2023-04-15T01:20:00.814Z,7.78
2023-04-15T01:22:38.511Z,7.79
2023-04-15T01:25:21.749Z,7.74
2023-04-15T01:27:58.189Z,7.71
2023-04-15T01:30:35.989Z,7.72
2023-04-15T01:33:10.669Z,7.72
2023-04-15T01:35:46.571Z,7.67
2023-04-15T01:38:22.503Z,7.75
2023-04-15T01:40:57.207Z,7.76
2023-04-15T01:43:33.635Z,7.80
2023-04-15T01:46:08.375Z,7.69
2023-04-15T01:48:43.316Z,7.63
2023-04-15T01:51:17.735Z,7.66
2023-04-15T01:53:52.489Z,7.60
2023-04-15T01:56:26.870Z,7.52
2023-04-15T01:59:03.873Z,7.60
2023-04-15T02:01:38.494Z,7.43
2023-04-15T02:04:16.752Z,7.40
2023-04-15T02:06:51.088Z,7.40
2023-04-15T02:09:25.858Z,7.34
2023-04-15T02:12:00.949Z,7.41
2023-04-15T02:14:37.779Z,7.35
2023-04-15T02:17:12.363Z,7.46
2023-04-15T02:19:46.665Z,7.47
2023-04-15T02:22:21.795Z,7.43
2023-04-15T02:24:56.093Z,7.47
2023-04-15T02:27:30.897Z,7.42
2023-04-15T02:30:08.595Z,7.50
2023-04-15T02:32:45.447Z,7.52
2023-04-15T02:35:20.155Z,7.51
2023-04-15T02:37:54.940Z,7.36
2023-04-15T02:40:29.451Z,7.47
2023-04-15T02:43:05.500Z,7.52
2023-04-15T02:45:41.517Z,7.60
2023-04-15T02:48:18.147Z,7.67
2023-04-15T02:50:52.420Z,7.54
2023-04-15T02:53:27.304Z,7.53
2023-04-15T02:56:01.781Z,7.59
2023-04-15T02:58:37.201Z,7.61
2023-04-15T03:01:13.074Z,7.62
2023-04-15T03:03:48.108Z,7.73
2023-04-15T03:06:22.460Z,7.78
2023-04-15T03:09:00.564Z,7.69
2023-04-15T03:11:40.705Z,7.70
2023-04-15T03:14:15.596Z,7.57
2023-04-15T03:16:52.155Z,7.62
2023-04-15T03:19:27.526Z,7.56
2023-04-15T03:22:02.008Z,7.53
2023-04-15T03:24:36.966Z,7.59
2023-04-15T03:27:11.323Z,7.59
2023-04-15T03:29:46.122Z,7.55
2023-04-15T03:32:22.572Z,7.54
2023-04-15T03:34:57.143Z,7.50
2023-04-15T03:37:31.582Z,7.63
2023-04-15T03:40:06.799Z,7.66
2023-04-15T03:42:41.186Z,7.62
2023-04-15T03:45:15.927Z,7.64
2023-04-15T03:47:51.775Z,7.50
2023-04-15T03:50:26.774Z,7.44
2023-04-15T03:53:01.000Z,7.49
2023-04-15T03:55:35.767Z,7.43
2023-04-15T03:58:12.985Z,7.41
2023-04-15T04:00:47.630Z,7.41
2023-04-15T04:03:26.511Z,7.18
2023-04-15T04:06:01.059Z,7.26
2023-04-15T04:08:35.743Z,7.29
2023-04-15T04:11:10.192Z,7.32
2023-04-15T04:13:44.831Z,7.31
2023-04-15T04:16:19.225Z,7.35
2023-04-15T04:18:55.339Z,7.34
2023-04-15T04:21:30.009Z,7.38
2023-04-15T04:24:04.893Z,7.43
2023-04-15T04:26:39.223Z,7.50
2023-04-15T04:29:14.069Z,7.43
2023-04-15T04:31:48.908Z,7.47
2023-04-15T04:34:24.965Z,7.42
2023-04-15T04:36:59.399Z,7.43
2023-04-15T04:39:34.044Z,7.43
2023-04-15T04:42:08.402Z,7.38
2023-04-15T04:44:43.098Z,7.60
2023-04-15T04:47:17.303Z,7.79
2023-04-15T04:49:53.390Z,7.66
2023-04-15T04:52:27.888Z,7.85
2023-04-15T04:55:02.594Z,7.90
2023-04-15T04:57:37.851Z,7.90
2023-04-15T05:00:24.603Z,7.93
2023-04-15T05:02:59.220Z,7.83
2023-04-15T05:05:35.956Z,7.71
2023-04-15T05:08:10.229Z,7.80
2023-04-15T05:10:45.030Z,7.85
2023-04-15T05:13:19.530Z,8.01
2023-04-15T05:15:54.176Z,8.11
2023-04-15T05:18:29.285Z,8.15
2023-04-15T05:21:06.121Z,7.90
2023-04-15T05:23:41.104Z,8.04
2023-04-15T05:26:15.866Z,7.94
2023-04-15T05:28:50.390Z,7.89
2023-04-15T05:31:25.073Z,9.03
2023-04-15T05:33:59.509Z,9.02
2023-04-15T05:36:35.858Z,8.31
2023-04-15T05:39:10.316Z,8.02
2023-04-15T05:41:44.911Z,7.92
2023-04-15T05:44:19.187Z,7.73
2023-04-15T05:46:53.861Z,7.70
2023-04-15T05:49:28.170Z,7.78
2023-04-15T05:52:04.491Z,7.85
2023-04-15T05:54:39.051Z,7.84
2023-04-15T05:57:13.689Z,7.72
2023-04-15T05:59:48.160Z,7.79
2023-04-15T06:03:07.947Z,8.35
2023-04-15T06:05:45.057Z,8.35
2023-04-15T06:08:19.433Z,7.97
2023-04-15T06:10:54.136Z,8.05
2023-04-15T06:13:28.587Z,8.14
2023-04-15T06:16:04.227Z,8.11
2023-04-15T06:18:40.131Z,8.05
2023-04-15T06:21:14.815Z,8.18
2023-04-15T06:23:49.186Z,8.23
2023-04-15T06:26:23.778Z,8.23
2023-04-15T06:28:58.129Z,8.25
2023-04-15T06:31:32.801Z,8.36
2023-04-15T06:34:08.535Z,8.22
2023-04-15T06:36:43.133Z,8.36
2023-04-15T06:39:17.684Z,8.27
2023-04-15T06:41:52.520Z,10.79
2023-04-15T06:44:28.787Z,10.80
2023-04-15T06:47:03.534Z,9.85
2023-04-15T06:49:40.567Z,9.20
2023-04-15T06:52:16.808Z,9.13
2023-04-15T06:54:51.364Z,8.91
2023-04-15T06:57:26.541Z,8.79
2023-04-15T07:00:01.162Z,8.82
2023-04-15T07:02:36.272Z,8.87
2023-04-15T07:05:12.904Z,8.96
2023-04-15T07:07:47.482Z,8.92
2023-04-15T07:10:23.302Z,8.90
2023-04-15T07:12:58.587Z,9.07
2023-04-15T07:15:32.881Z,8.85
2023-04-15T07:18:07.430Z,8.71
2023-04-15T07:20:43.152Z,8.85
2023-04-15T07:23:18.497Z,8.93
2023-04-15T07:25:53.231Z,8.67
2023-04-15T07:28:28.209Z,8.93
2023-04-15T07:31:02.823Z,8.93
2023-04-15T07:33:37.730Z,8.63
2023-04-15T07:36:13.558Z,8.73
2023-04-15T07:38:48.410Z,8.76
2023-04-15T07:41:23.214Z,8.83
2023-04-15T07:43:57.927Z,10.86
2023-04-15T07:46:32.443Z,10.90
2023-04-15T07:49:07.600Z,9.62
2023-04-15T07:51:44.521Z,9.25
2023-04-15T07:54:20.096Z,9.30
2023-04-15T07:56:54.418Z,9.35
2023-04-15T07:59:30.235Z,9.44
2023-04-15T08:02:05.074Z,8.98
2023-04-15T08:04:40.092Z,8.96
2023-04-15T08:07:16.299Z,9.22
2023-04-15T08:09:51.288Z,9.06
2023-04-15T08:12:25.993Z,9.02
2023-04-15T08:15:01.130Z,9.05
2023-04-15T08:17:35.743Z,9.00
2023-04-15T08:20:10.882Z,9.00
2023-04-15T08:22:47.972Z,9.03
2023-04-15T08:25:22.689Z,9.13
2023-04-15T08:27:57.316Z,9.23
2023-04-15T08:30:31.996Z,9.23
2023-04-15T08:33:06.252Z,9.35
2023-04-15T08:35:40.875Z,9.23
2023-04-15T08:38:16.966Z,9.07
2023-04-15T08:40:51.917Z,9.02
2023-04-15T08:43:30.789Z,9.16
2023-04-15T08:46:06.788Z,9.22
2023-04-15T08:48:41.702Z,9.30
2023-04-15T08:51:17.361Z,9.04
2023-04-15T08:53:53.568Z,9.34
2023-04-15T08:56:29.423Z,9.09
2023-04-15T08:59:03.956Z,9.30
2023-04-15T09:01:39.752Z,9.22
2023-04-15T09:04:14.552Z,9.32
2023-04-15T09:06:49.515Z,9.26
2023-04-15T09:09:25.348Z,9.38
2023-04-15T09:12:00.024Z,9.54
2023-04-15T09:14:35.166Z,9.61
2023-04-15T09:17:12.470Z,9.44
2023-04-15T09:19:46.998Z,9.55
2023-04-15T09:22:22.794Z,9.49
2023-04-15T09:24:58.754Z,9.50
2023-04-15T09:27:39.087Z,9.63
2023-04-15T09:30:14.403Z,9.52
2023-04-15T09:32:53.241Z,9.68
2023-04-15T09:35:28.702Z,9.66
2023-04-15T09:38:05.460Z,9.79
2023-04-15T09:40:42.719Z,9.81
2023-04-15T09:43:18.060Z,9.87
2023-04-15T09:45:54.015Z,9.82
2023-04-15T09:48:31.228Z,9.63
2023-04-15T09:51:05.752Z,9.34
2023-04-15T09:53:40.513Z,9.45
2023-04-15T09:56:16.226Z,9.39
2023-04-15T09:58:58.591Z,9.44
2023-04-15T10:01:33.221Z,9.33
2023-04-15T10:04:08.036Z,9.32
2023-04-15T10:06:42.742Z,9.40
2023-04-15T10:09:17.941Z,9.52
2023-04-15T10:11:53.982Z,9.48
2023-04-15T10:14:34.045Z,9.63
2023-04-15T10:17:12.414Z,9.81
2023-04-15T10:19:48.309Z,9.72
2023-04-15T10:22:24.541Z,9.61
2023-04-15T10:25:00.060Z,9.79
2023-04-15T10:27:36.235Z,9.63
2023-04-15T10:30:12.070Z,9.81
2023-04-15T10:32:47.578Z,9.66
2023-04-15T10:35:23.747Z,9.72
2023-04-15T10:37:58.168Z,9.82
2023-04-15T10:40:34.803Z,9.79
2023-04-15T10:43:27.608Z,9.88
2023-04-15T10:46:02.288Z,9.69
2023-04-15T10:48:36.711Z,9.89
2023-04-15T10:51:11.413Z,9.96
2023-04-15T10:53:45.856Z,9.90
2023-04-15T10:56:20.462Z,9.93
2023-04-15T10:58:56.474Z,9.97
2023-04-15T11:01:54.290Z,10.04
2023-04-15T11:04:54.596Z,10.04
2023-04-15T11:07:39.632Z,10.01
2023-04-15T11:10:54.156Z,9.81
2023-04-15T11:13:31.558Z,9.76
2023-04-15T11:16:07.570Z,10.08
2023-04-15T11:18:42.272Z,10.18
2023-04-15T11:21:16.717Z,10.25
2023-04-15T11:23:51.461Z,10.31
2023-04-15T11:26:28.428Z,9.98
2023-04-15T11:29:03.568Z,9.98
2023-04-15T11:31:39.624Z,10.44
2023-04-15T11:34:14.215Z,10.56
2023-04-15T11:36:48.552Z,10.77
2023-04-15T11:39:24.390Z,10.67
2023-04-15T11:41:58.738Z,10.50
2023-04-15T11:44:33.386Z,10.31
2023-04-15T11:47:27.403Z,10.29
2023-04-15T11:50:16.669Z,10.36
2023-04-15T11:52:55.321Z,10.34
2023-04-15T11:55:30.546Z,10.31
2023-04-15T11:58:11.769Z,10.59
2023-04-15T12:00:52.551Z,11.00
2023-04-15T12:03:30.526Z,11.43
2023-04-15T12:06:16.972Z,11.48
2023-04-15T12:09:06.047Z,11.46
2023-04-15T12:11:45.995Z,11.71
2023-04-15T12:14:25.546Z,11.60
2023-04-15T12:17:01.616Z,11.67
2023-04-15T12:19:39.918Z,11.57
2023-04-15T12:22:15.930Z,11.34
2023-04-15T12:24:57.912Z,11.14
2023-04-15T12:27:33.150Z,11.19
2023-04-15T12:30:09.671Z,10.99
2023-04-15T12:32:44.277Z,11.12
2023-04-15T12:35:21.710Z,10.99
2023-04-15T12:37:56.550Z,11.03
2023-04-15T12:40:31.300Z,11.29
2023-04-15T12:43:05.888Z,11.32
2023-04-15T12:45:40.515Z,11.36
2023-04-15T12:48:14.858Z,11.39
2023-04-15T12:50:50.996Z,11.47
2023-04-15T12:53:25.337Z,11.68
2023-04-15T12:56:02.865Z,11.92
2023-04-15T12:58:37.358Z,12.39
2023-04-15T13:01:13.019Z,12.74
2023-04-15T13:03:48.297Z,12.86
2023-04-15T13:06:25.020Z,12.74
2023-04-15T13:08:59.810Z,13.10
2023-04-15T13:11:35.942Z,13.57
2023-04-15T13:14:11.552Z,13.53
2023-04-15T13:16:46.598Z,13.43
2023-04-15T13:19:21.428Z,13.09
2023-04-15T13:21:57.715Z,12.78
2023-04-15T13:24:32.197Z,12.81
2023-04-15T13:27:07.446Z,12.92
2023-04-15T13:29:41.879Z,12.85
2023-04-15T13:32:16.858Z,12.71
2023-04-15T13:34:51.274Z,12.63
2023-04-15T13:37:29.504Z,12.59
2023-04-15T13:40:04.282Z,12.58
2023-04-15T13:42:39.076Z,12.49
2023-04-15T13:45:13.608Z,12.54
2023-04-15T13:47:48.375Z,12.76
2023-04-15T13:50:22.740Z,12.85
2023-04-15T13:52:58.816Z,12.80
2023-04-15T13:55:35.162Z,12.78
2023-04-15T13:58:10.103Z,12.78
2023-04-15T14:03:06.412Z,12.97
2023-04-15T14:05:41.856Z,12.97
2023-04-15T14:08:16.520Z,12.32
2023-04-15T14:10:51.352Z,12.22
2023-04-15T14:13:26.229Z,11.89
2023-04-15T14:16:01.055Z,11.88
2023-04-15T14:18:37.838Z,11.73
2023-04-15T14:21:12.553Z,11.60
2023-04-15T14:23:47.159Z,11.07
2023-04-15T14:26:21.988Z,10.79
2023-04-15T14:28:56.952Z,10.40
2023-04-15T14:31:31.638Z,10.09
2023-04-15T14:34:07.412Z,9.91
2023-04-15T14:36:42.176Z,9.84
2023-04-15T14:39:16.813Z,9.70
2023-04-15T14:41:51.808Z,9.59
2023-04-15T14:44:26.476Z,9.53
2023-04-15T14:47:01.296Z,9.57
2023-04-15T14:49:37.089Z,9.45
2023-04-15T14:52:11.878Z,9.53
2023-04-15T14:54:46.320Z,9.59
2023-04-15T14:57:20.935Z,9.77
2023-04-15T14:59:56.819Z,9.93
2023-04-15T15:02:38.960Z,10.21
2023-04-15T15:05:16.389Z,10.37
2023-04-15T15:07:51.237Z,10.61
2023-04-15T15:10:38.627Z,10.82
2023-04-15T15:13:20.847Z,11.07
2023-04-15T15:15:55.351Z,11.05
2023-04-15T15:18:30.237Z,10.87
2023-04-15T15:21:06.317Z,11.02
2023-04-15T15:23:41.195Z,10.90
2023-04-15T15:26:15.980Z,10.83
2023-04-15T15:28:51.565Z,11.06
2023-04-15T15:31:26.200Z,11.07
2023-04-15T15:34:00.869Z,11.01
2023-04-15T15:36:36.591Z,11.20
2023-04-15T15:39:12.173Z,11.18
2023-04-15T15:41:46.616Z,11.07
2023-04-15T15:44:21.271Z,11.08
2023-04-15T15:46:55.722Z,11.20
2023-04-15T15:49:30.606Z,11.14
2023-04-15T15:52:06.988Z,10.95
2023-04-15T15:54:42.094Z,11.18
2023-04-15T15:57:16.549Z,11.14
2023-04-15T16:00:04.808Z,11.24
2023-04-15T16:03:05.284Z,11.27
2023-04-15T16:05:34.233Z,11.21
2023-04-15T16:08:10.110Z,10.93
2023-04-15T16:10:45.890Z,10.74
2023-04-15T16:13:20.247Z,10.61
2023-04-15T16:15:55.080Z,10.57
2023-04-15T16:18:30.026Z,10.59
2023-04-15T16:21:05.278Z,10.57
2023-04-15T16:23:41.145Z,10.41
2023-04-15T16:26:16.023Z,10.55
2023-04-15T16:28:50.383Z,10.44
2023-04-15T16:31:25.703Z,10.35
2023-04-15T16:34:00.358Z,10.32
2023-04-15T16:36:36.425Z,10.41
2023-04-15T16:39:12.242Z,10.32
2023-04-15T16:41:47.359Z,10.37
2023-04-15T16:44:21.861Z,10.48
2023-04-15T16:46:56.916Z,10.50
2023-04-15T16:49:31.680Z,10.62
2023-04-15T16:52:06.698Z,10.55
2023-04-15T16:54:42.454Z,10.33
2023-04-15T16:57:17.023Z,10.37
2023-04-15T16:59:52.846Z,10.48
2023-04-15T17:02:27.956Z,10.59
2023-04-15T17:05:02.416Z,10.45
2023-04-15T17:07:37.243Z,10.45
2023-04-15T17:10:13.986Z,10.42
2023-04-15T17:12:49.857Z,10.49
2023-04-15T17:15:24.195Z,10.44
2023-04-15T17:17:59.337Z,10.45
2023-04-15T17:20:34.791Z,10.47
2023-04-15T17:23:09.612Z,10.40
2023-04-15T17:25:45.753Z,10.42
2023-04-15T17:28:20.804Z,10.44
2023-04-15T17:30:55.462Z,10.45
2023-04-15T17:34:01.544Z,10.49
2023-04-15T17:36:24.750Z,10.41
2023-04-15T17:39:00.026Z,10.27
2023-04-15T17:41:36.292Z,10.17
2023-04-15T17:44:11.269Z,10.20
2023-04-15T17:46:45.934Z,10.16
2023-04-15T17:49:21.078Z,10.03
2023-04-15T17:51:55.666Z,10.05
2023-04-15T17:54:30.475Z,10.08
2023-04-15T17:57:06.466Z,10.08
2023-04-15T17:59:44.104Z,10.00
2023-04-15T18:02:19.297Z,10.15
2023-04-15T18:04:54.859Z,10.07
2023-04-15T18:07:29.525Z,10.10
2023-04-15T18:10:04.476Z,10.10
2023-04-15T18:12:40.534Z,10.06
2023-04-15T18:15:15.794Z,9.99
2023-04-15T18:17:50.547Z,9.95
2023-04-15T18:20:25.563Z,9.94
2023-04-15T18:23:00.221Z,10.06
2023-04-15T18:25:35.215Z,10.08
2023-04-15T18:28:11.402Z,10.09
2023-04-15T18:30:46.368Z,9.89
2023-04-15T18:33:21.066Z,9.80
2023-04-15T18:35:57.569Z,9.85
2023-04-15T18:38:32.139Z,9.86
2023-04-15T18:41:09.584Z,9.83
2023-04-15T18:43:45.948Z,9.74
2023-04-15T18:46:20.998Z,9.68
2023-04-15T18:48:55.732Z,9.58
2023-04-15T18:51:30.587Z,9.50
2023-04-15T18:54:05.362Z,9.51
2023-04-15T18:56:40.706Z,9.57
2023-04-15T18:59:29.099Z,9.56
2023-04-15T19:02:07.639Z,9.53
2023-04-15T19:04:42.157Z,9.59
2023-04-15T19:07:17.086Z,9.63
2023-04-15T19:09:51.581Z,9.69
2023-04-15T19:12:28.024Z,9.61
2023-04-15T19:15:03.919Z,9.56
2023-04-15T19:17:38.852Z,9.46
2023-04-15T19:20:13.208Z,9.40
2023-04-15T19:22:48.574Z,9.42
2023-04-15T19:25:22.934Z,9.35
2023-04-15T19:27:59.943Z,9.44
2023-04-15T19:30:36.448Z,9.42
2023-04-15T19:33:11.267Z,9.41
2023-04-15T19:35:46.766Z,9.42
2023-04-15T19:38:22.651Z,9.37
2023-04-15T19:40:57.320Z,9.52
2023-04-15T19:43:33.328Z,9.56
2023-04-15T19:46:10.054Z,9.51
2023-04-15T19:48:45.214Z,9.59
2023-04-15T19:51:20.499Z,9.56
2023-04-15T19:53:56.880Z,9.59
2023-04-15T19:56:34.185Z,9.56
2023-04-15T19:59:09.601Z,9.62
2023-04-15T20:01:45.969Z,9.68
2023-04-15T20:04:20.789Z,9.64
2023-04-15T20:06:55.870Z,9.54
2023-04-15T20:09:30.820Z,9.51
2023-04-15T20:12:49.598Z,9.57
2023-04-15T20:15:02.086Z,9.66
2023-04-15T20:17:39.027Z,9.68
2023-04-15T20:20:13.995Z,9.63
2023-04-15T20:22:48.601Z,9.59
2023-04-15T20:25:23.451Z,9.44
2023-04-15T20:28:00.411Z,9.46
2023-04-15T20:30:36.034Z,9.52
2023-04-15T20:33:12.225Z,9.37
2023-04-15T20:35:47.122Z,9.27
2023-04-15T20:38:22.212Z,9.32
2023-04-15T20:40:57.953Z,9.44
2023-04-15T20:43:32.889Z,9.47
2023-04-15T20:46:19.849Z,9.29
2023-04-15T20:49:03.547Z,9.30
2023-04-15T20:51:38.455Z,9.30
2023-04-15T20:54:12.889Z,9.36
2023-04-15T20:56:47.782Z,9.26
2023-04-15T20:59:22.185Z,9.22
2023-04-15T21:01:57.593Z,9.31
2023-04-15T21:04:33.298Z,9.34
2023-04-15T21:07:07.959Z,9.36
2023-04-15T21:09:43.786Z,9.43
2023-04-15T21:12:18.438Z,9.47
2023-04-15T21:14:53.078Z,9.46
2023-04-15T21:17:27.869Z,9.39
2023-04-15T21:20:03.780Z,9.15
2023-04-15T21:22:38.441Z,9.18
2023-04-15T21:25:12.795Z,9.38
2023-04-15T21:27:47.436Z,9.33
2023-04-15T21:30:23.853Z,9.27
2023-04-15T21:32:58.631Z,9.32
2023-04-15T21:35:34.341Z,9.42
2023-04-15T21:38:09.389Z,9.28
2023-04-15T21:40:43.828Z,9.30
2023-04-15T21:43:18.682Z,9.39
2023-04-15T21:46:24.243Z,9.41
2023-04-15T21:48:48.270Z,9.31
2023-04-15T21:51:24.072Z,9.34
2023-04-15T21:53:58.861Z,9.35
2023-04-15T21:56:33.788Z,9.31
2023-04-15T21:59:08.625Z,9.25
2023-04-15T22:02:57.392Z,9.86
2023-04-15T22:05:32.534Z,9.86
2023-04-15T22:08:08.022Z,9.31
2023-04-15T22:10:42.693Z,9.30
2023-04-15T22:13:18.003Z,9.25
2023-04-15T22:15:52.604Z,9.33
2023-04-15T22:18:28.373Z,9.37
2023-04-15T22:21:02.966Z,9.31
2023-04-15T22:23:37.278Z,9.29
2023-04-15T22:26:11.958Z,9.26
2023-04-15T22:28:46.354Z,9.23
2023-04-15T22:31:20.926Z,9.02
2023-04-15T22:33:57.066Z,8.96
2023-04-15T22:36:31.917Z,8.96
2023-04-15T22:39:06.612Z,9.00
2023-04-15T22:41:41.438Z,8.86
2023-04-15T22:44:15.844Z,8.81
2023-04-15T22:46:52.156Z,8.85
2023-04-15T22:49:28.067Z,8.95
2023-04-15T22:52:02.837Z,8.97
2023-04-15T22:54:37.059Z,8.97
2023-04-15T22:57:11.646Z,9.00
2023-04-15T22:59:46.190Z,9.01
2023-04-15T23:02:21.512Z,9.08
2023-04-15T23:04:57.840Z,9.00
2023-04-15T23:07:32.527Z,8.98
2023-04-15T23:10:08.155Z,9.02
2023-04-15T23:12:42.960Z,8.96
2023-04-15T23:15:17.921Z,9.02
2023-04-15T23:17:52.505Z,8.99
2023-04-15T23:20:28.195Z,8.99
2023-04-15T23:23:03.132Z,9.01
2023-04-15T23:25:37.498Z,9.01
2023-04-15T23:28:12.234Z,8.91
2023-04-15T23:30:46.511Z,8.67
2023-04-15T23:33:21.110Z,8.60
2023-04-15T23:35:57.099Z,8.61
2023-04-15T23:38:31.731Z,8.69
2023-04-15T23:41:06.305Z,8.74
2023-04-15T23:43:40.890Z,8.89
2023-04-15T23:46:17.012Z,8.84
2023-04-15T23:48:51.660Z,8.81
2023-04-15T23:51:27.476Z,8.76
2023-04-15T23:54:02.456Z,8.65
2023-04-15T23:56:36.843Z,8.69
2023-04-15T23:59:11.572Z,8.58
